Time;durP1;ratioP1;P1;durP2;ratioP2;P2;SDS_P1;SDS_P2;PMS_P1;PMS_P2;Temp;Humidity;BMP_temperature;BMP_pressure;BME280_temperature;BME280_humidity;BME280_pressure;Samples;Min_cycle;Max_cycle;Signal;HPM_P1;HPM_P2
2023/05/23 00:00:42;;;;;;;6.43;4.13;;;;;;;17.46;0.00;60892.56;5922667;23;20429;-94
2023/05/23 00:03:21;;;;;;;6.65;3.97;;;;;;;-145.06;0.00;60892.56;5922494;23;20005;-94
2023/05/23 00:06:01;;;;;;;6.13;4.20;;;;;;;-145.06;0.00;60892.56;5944863;23;20009;-94
2023/05/23 00:08:40;;;;;;;6.32;4.03;;;;;;;-145.06;0.00;60892.56;5922297;23;20010;-95
2023/05/23 00:11:22;;;;;;;6.17;4.10;;;;;;;-145.06;0.00;60892.56;5922561;23;20006;-94
2023/05/23 00:14:02;;;;;;;5.25;3.88;;;;;;;-145.06;0.00;60892.56;5922186;23;20009;-94
2023/05/23 00:16:42;;;;;;;6.90;3.78;;;;;;;-145.06;0.00;60892.56;5922222;23;20010;-95
2023/05/23 00:19:24;;;;;;;5.35;3.78;;;;;;;-145.06;0.00;60892.56;5925135;23;20009;-95
2023/05/23 00:22:07;;;;;;;5.10;3.47;;;;;;;-145.06;0.00;60892.56;5922276;23;20001;-95
2023/05/23 00:24:46;;;;;;;6.68;3.67;;;;;;;-145.06;0.00;60892.56;5922680;23;20005;-95
2023/05/23 00:27:30;;;;;;;3.97;2.90;;;;;;;-145.06;0.00;60892.56;5922837;23;20009;-94
2023/05/23 00:30:09;;;;;;;4.32;2.70;;;;;;;-145.06;0.00;60892.56;5922208;23;20002;-95
2023/05/23 00:32:48;;;;;;;3.05;2.50;;;;;;;-145.06;0.00;60892.56;5921958;23;20092;-94
2023/05/23 00:35:32;;;;;;;3.47;2.30;;;;;;;-145.06;0.00;60892.56;5922032;23;20033;-95
2023/05/23 00:38:15;;;;;;;3.55;2.28;;;;;;;-145.06;0.00;60892.56;5922105;23;20005;-94
2023/05/23 00:41:07;;;;;;;;;;;;;;;;;;;;;
2023/05/23 00:43:58;;;;;;;2.63;1.83;;;;;;;-145.06;0.00;60892.56;5953818;23;20005;-94
2023/05/23 00:46:51;;;;;;;2.38;1.63;;;;;;;-145.06;0.00;60892.56;5922575;23;20006;-94
2023/05/23 00:49:55;;;;;;;;;;;;;;;;;;;;;
2023/05/23 00:52:41;;;;;;;2.75;1.80;;;;;;;-145.06;0.00;60892.56;5953889;23;20009;-95
2023/05/23 00:55:38;;;;;;;3.38;2.15;;;;;;;-145.06;0.00;60892.56;5922128;23;20005;-94
2023/05/23 01:02:01;;;;;;;3.08;2.00;;;;;;;17.14;0.00;60892.56;5953976;23;19997;-94
2023/05/23 01:05:26;;;;;;;2.15;1.95;;;;;;;-145.06;0.00;60892.56;5944071;23;20010;-94
2023/05/23 01:12:35;;;;;;;2.63;2.03;;;;;;;-145.06;0.00;60892.56;5953185;23;20005;-94
2023/05/23 01:15:37;;;;;;;3.22;2.33;;;;;;;-145.06;0.00;60892.56;5942257;23;20080;-93
2023/05/23 01:18:57;;;;;;;3.25;2.05;;;;;;;-145.06;0.00;60892.56;5921227;23;20014;-94
2023/05/23 01:21:51;;;;;;;3.13;2.40;;;;;;;16.99;0.00;60892.56;5926026;23;20002;-95
2023/05/23 01:29:14;;;;;;;;;;;;;;;;;;;;;
2023/05/23 01:32:32;;;;;;;;;;;;;;;;;;;;;
2023/05/23 01:35:27;;;;;;;;;;;;;;;;;;;;;
2023/05/23 01:38:47;;;;;;;4.10;2.78;;;;;;;-145.06;0.00;60892.56;5953145;23;20500;-94
2023/05/23 01:41:34;;;;;;;4.47;3.40;;;;;;;-145.06;0.00;60892.56;5922037;23;20001;-95
2023/05/23 01:45:02;;;;;;;;;;;;;;;;;;;;;
2023/05/23 01:47:52;;;;;;;4.78;3.38;;;;;;;-145.06;0.00;60892.56;5955101;23;20439;-95
2023/05/23 01:51:03;;;;;;;3.70;3.08;;;;;;;-145.06;0.00;60892.56;5935641;23;20005;-95
2023/05/23 01:59:05;;;;;;;4.47;3.10;;;;;;;-145.06;0.00;60892.56;5970761;23;20020;-95
2023/05/23 02:02:38;;;;;;;;;;;;;;;;;;;;;
2023/05/23 02:05:32;;;;;;;;;;;;;;;;;;;;;
2023/05/23 02:11:32;;;;;;;;;;;;;;;;;;;;;
2023/05/23 02:14:40;;;;;;;3.67;2.70;;;;;;;-145.06;0.00;60892.56;5981598;23;20008;-94
2023/05/23 02:17:38;;;;;;;;;;;;;;;;;;;;;
2023/05/23 02:20:48;;;;;;;;;;;;;;;;;;;;;
2023/05/23 02:23:42;;;;;;;;;;;;;;;;;;;;;
2023/05/23 02:26:47;;;;;;;3.03;2.10;;;;;;;-145.06;0.00;60892.56;5981944;23;20564;-94
2023/05/23 02:36:45;;;;;;;;;;;;;;;;;;;;;
2023/05/23 02:43:43;;;;;;;;;;;;;;;;;;;;;
2023/05/23 02:46:36;;;;;;;2.83;1.70;;;;;;;-145.06;0.00;60892.56;5981564;23;20075;-93
2023/05/23 02:49:28;;;;;;;2.08;1.55;;;;;;;-145.06;0.00;60892.56;5949644;23;20080;-94
2023/05/23 02:52:10;;;;;;;3.30;1.50;;;;;;;-145.06;0.00;60892.56;5949668;23;20009;-93
2023/05/23 02:55:00;;;;;;;2.45;1.60;;;;;;;-145.06;0.00;60892.56;5949574;23;20001;-94
2023/05/23 02:57:54;;;;;;;2.42;1.65;;;;;;;-145.06;0.00;60892.56;5950024;23;20013;-94
2023/05/23 03:01:07;;;;;;;2.13;1.70;;;;;;;-145.06;0.00;60892.56;5949691;23;20001;-95
2023/05/23 03:04:08;;;;;;;;;;;;;;;;;;;;;
2023/05/23 03:07:17;;;;;;;;;;;;;;;;;;;;;
2023/05/23 03:10:31;;;;;;;;;;;;;;;;;;;;;
2023/05/23 03:13:49;;;;;;;3.75;2.75;;;;;;;-145.06;0.00;60892.56;5981559;23;20009;-93
2023/05/23 03:17:05;;;;;;;;;;;;;;;;;;;;;
2023/05/23 03:20:18;;;;;;;3.70;2.80;;;;;;;-145.06;0.00;60892.56;5971771;23;20033;-95
2023/05/23 03:23:08;;;;;;;4.22;2.53;;;;;;;-145.06;0.00;60892.56;5950008;23;20039;-95
2023/05/23 03:26:12;;;;;;;;;;;;;;;;;;;;;
2023/05/23 03:29:06;;;;;;;;;;;;;;;;;;;;;
2023/05/23 03:31:59;;;;;;;3.17;2.45;;;;;;;-145.06;0.00;60892.56;5980941;23;20005;-94
2023/05/23 03:35:05;;;;;;;3.22;2.55;;;;;;;-145.06;0.00;60892.56;5949615;23;20009;-93
2023/05/23 03:38:21;;;;;;;4.47;2.33;;;;;;;-145.06;0.00;60892.56;5949226;23;20001;-95
2023/05/23 03:44:51;;;;;;;;;;;;;;;;;;;;;
2023/05/23 03:47:47;;;;;;;3.90;2.30;;;;;;;-145.06;0.00;60892.56;5981505;23;20009;-94
2023/05/23 03:51:14;;;;;;;3.40;2.10;;;;;;;-145.06;0.00;60892.56;5948726;23;20005;-94
2023/05/23 03:53:53;;;;;;;4.00;2.13;;;;;;;-145.06;0.00;60892.56;5949732;23;20013;-93
2023/05/23 04:00:22;;;;;;;2.55;2.00;;;;;;;-145.06;0.00;60892.56;5959777;23;20025;-93
2023/05/23 04:03:38;;;;;;;2.95;1.58;;;;;;;-145.06;0.00;60892.56;5954552;23;20087;-93
2023/05/23 04:06:23;;;;;;;2.45;1.50;;;;;;;-145.06;0.00;60892.56;5938111;23;20080;-93
2023/05/23 04:09:25;;;;;;;2.83;2.00;;;;;;;-145.06;0.00;60892.56;5941848;23;20006;-93
2023/05/23 04:12:31;;;;;;;;;;;;;;;;;;;;;
2023/05/23 04:15:11;;;;;;;1.80;1.50;;;;;;;-145.06;0.00;60892.56;5952348;23;20041;-93
2023/05/23 04:17:56;;;;;;;2.13;1.77;;;;;;;-145.06;0.00;60892.56;5920962;23;20080;-92
2023/05/23 04:20:36;;;;;;;2.58;2.05;;;;;;;-145.06;0.00;60892.56;5920951;23;20005;-93
2023/05/23 04:23:27;;;;;;;;;;;;;;;;;;;;;
2023/05/23 04:26:10;;;;;;;2.67;2.05;;;;;;;-145.06;0.00;60892.56;5954653;23;20009;-93
2023/05/23 04:28:53;;;;;;;3.55;2.33;;;;;;;-145.06;0.00;60892.56;5922525;23;20001;-92
2023/05/23 04:31:40;;;;;;;3.67;2.22;;;;;;;-145.06;0.00;60892.56;5921264;23;20006;-93
2023/05/23 04:34:36;;;;;;;3.30;2.30;;;;;;;-145.06;0.00;60892.56;5921072;23;20100;-93
2023/05/23 04:37:29;;;;;;;3.13;2.33;;;;;;;-145.06;0.00;60892.56;5920669;23;20444;-94
2023/05/23 04:40:12;;;;;;;3.95;2.22;;;;;;;-145.06;0.00;60892.56;5921379;23;20001;-92
2023/05/23 04:42:56;;;;;;;3.22;2.25;;;;;;;-145.06;0.00;60892.56;5921190;23;20009;-93
2023/05/23 04:45:39;;;;;;;3.05;2.03;;;;;;;-145.06;0.00;60892.56;5921415;23;20006;-92
2023/05/23 04:48:20;;;;;;;2.35;1.80;;;;;;;-145.06;0.00;60892.56;5921257;23;20006;-93
2023/05/23 04:51:01;;;;;;;3.03;1.85;;;;;;;-145.06;0.00;60892.56;5921026;23;20429;-93
2023/05/23 04:53:40;;;;;;;2.58;1.83;;;;;;;15.86;0.00;60892.56;5920799;23;20013;-93
2023/05/23 04:56:24;;;;;;;1.97;1.53;;;;;;;-145.06;0.00;60892.56;5920894;23;20029;-93
2023/05/23 04:59:03;;;;;;;4.13;2.00;;;;;;;-145.06;0.00;60892.56;5920591;23;20245;-94
2023/05/23 05:01:42;;;;;;;2.50;1.83;;;;;;;-145.06;0.00;60892.56;5921101;23;20005;-94
2023/05/23 05:04:22;;;;;;;2.23;1.80;;;;;;;-145.06;0.00;60892.56;5926940;23;20013;-94
2023/05/23 05:07:03;;;;;;;2.92;1.85;;;;;;;15.87;0.00;60892.56;5943364;23;20001;-93
2023/05/23 05:09:42;;;;;;;3.95;2.00;;;;;;;-145.06;0.00;60892.56;5932390;23;20006;-95
2023/05/23 05:12:21;;;;;;;2.35;1.73;;;;;;;15.86;0.00;60892.56;5920430;23;20013;-93
2023/05/23 05:15:01;;;;;;;2.80;1.80;;;;;;;15.87;0.00;60892.56;5920492;23;20361;-95
2023/05/23 05:17:43;;;;;;;3.75;1.50;;;;;;;-145.06;0.00;60892.56;5920781;23;20009;-92
2023/05/23 05:20:22;;;;;;;3.35;1.75;;;;;;;15.87;0.00;60892.56;5920505;23;20001;-93
2023/05/23 05:23:01;;;;;;;2.30;1.75;;;;;;;-145.06;0.00;60892.56;5941881;23;20009;-93
2023/05/23 05:25:40;;;;;;;2.70;1.80;;;;;;;-145.06;0.00;60892.56;5919361;23;20065;-94
2023/05/23 05:28:22;;;;;;;2.33;1.60;;;;;;;-145.06;0.00;60892.56;5919196;23;20033;-94
2023/05/23 05:31:03;;;;;;;2.47;1.67;;;;;;;-145.06;0.00;60892.56;5919653;23;20369;-94
2023/05/23 05:33:44;;;;;;;3.22;2.08;;;;;;;-145.06;0.00;60892.56;5919808;23;20005;-93
2023/05/23 05:36:23;;;;;;;2.33;1.60;;;;;;;-145.06;0.00;60892.56;5920357;23;20005;-93
2023/05/23 05:39:02;;;;;;;2.40;1.77;;;;;;;-145.06;0.00;60892.56;5920106;23;20029;-93
2023/05/23 05:41:41;;;;;;;2.30;2.00;;;;;;;-145.06;0.00;60892.56;5920524;23;20005;-93
2023/05/23 05:44:26;;;;;;;3.92;1.80;;;;;;;-145.06;0.00;60892.56;5920568;23;20664;-94
2023/05/23 05:47:05;;;;;;;2.63;1.80;;;;;;;-145.06;0.00;60892.56;5921077;23;20077;-94
2023/05/23 05:49:45;;;;;;;3.33;2.00;;;;;;;-145.06;0.00;60892.56;5920691;23;20010;-94
2023/05/23 05:52:37;;;;;;;;;;;;;;;;;;;;;
2023/05/23 05:55:16;;;;;;;2.95;1.80;;;;;;;-145.06;0.00;60892.56;5951935;23;20013;-93
2023/05/23 05:57:58;;;;;;;2.65;1.98;;;;;;;-145.06;0.00;60892.56;5921452;23;20005;-93
2023/05/23 06:00:43;;;;;;;2.45;1.70;;;;;;;15.88;0.00;60892.56;5922543;23;20001;-93
2023/05/23 06:03:26;;;;;;;3.10;2.20;;;;;;;187.52;0.00;60892.56;5922090;23;20006;-92
2023/05/23 06:06:07;;;;;;;3.60;2.22;;;;;;;-145.06;0.00;60892.56;5922741;23;20317;-94
2023/05/23 06:08:49;;;;;;;3.20;1.90;;;;;;;-145.06;0.00;60892.56;5921295;23;20025;-94
2023/05/23 06:11:31;;;;;;;5.65;2.47;;;;;;;-145.06;0.00;60892.56;5921566;23;20006;-94
2023/05/23 06:14:10;;;;;;;2.97;2.00;;;;;;;-145.06;0.00;60892.56;5921275;23;20017;-93
2023/05/23 06:16:50;;;;;;;3.90;2.70;;;;;;;-145.06;0.00;60892.56;5921418;23;20005;-93
2023/05/23 06:19:29;;;;;;;3.55;2.33;;;;;;;-145.06;0.00;60892.56;5921298;23;20005;-94
2023/05/23 06:22:08;;;;;;;3.50;2.20;;;;;;;-145.06;0.00;60892.56;5921758;23;20009;-93
2023/05/23 06:24:52;;;;;;;3.87;2.63;;;;;;;-145.06;0.00;60892.56;5921599;23;20014;-94
2023/05/23 06:27:31;;;;;;;2.80;1.75;;;;;;;-145.06;0.00;60892.56;5921903;23;20248;-93
2023/05/23 06:30:11;;;;;;;2.63;2.03;;;;;;;-145.06;0.00;60892.56;5921152;23;20010;-92
2023/05/23 06:32:50;;;;;;;3.50;2.38;;;;;;;15.88;0.00;60892.56;5921352;23;20005;-93
2023/05/23 06:35:49;;;;;;;2.95;2.10;;;;;;;-145.06;0.00;60892.56;5921072;23;20314;-93
2023/05/23 06:38:32;;;;;;;;;;;;;;;-145.06;0.00;60892.56;5922003;23;20005;-94
2023/05/23 06:41:11;;;;;;;2.70;1.77;;;;;;;-145.06;0.00;60892.56;5921241;23;19909;-93
2023/05/23 06:43:50;;;;;;;1.90;1.70;;;;;;;-145.06;0.00;60892.56;5921693;23;20111;-93
2023/05/23 06:46:28;;;;;;;3.03;1.52;;;;;;;-145.06;0.00;60892.56;5921893;23;20037;-94
2023/05/23 06:49:09;;;;;;;4.50;1.63;;;;;;;-145.06;0.00;60892.56;5921749;23;20421;-95
2023/05/23 06:51:49;;;;;;;3.05;1.50;;;;;;;-145.06;0.00;60892.56;5921006;23;20037;-93
2023/05/23 06:54:28;;;;;;;1.98;1.40;;;;;;;-145.06;0.00;60892.56;5920655;23;20448;-92
2023/05/23 06:57:07;;;;;;;1.52;1.30;;;;;;;-145.06;0.00;60892.56;5919593;23;20010;-94
2023/05/23 06:59:46;;;;;;;1.70;1.20;;;;;;;-145.06;0.00;60892.56;5919497;23;20449;-92
2023/05/23 07:02:27;;;;;;;1.50;1.30;;;;;;;-145.06;0.00;60892.56;5920302;23;20005;-93
2023/05/23 07:05:09;;;;;;;1.55;1.30;;;;;;;16.04;0.00;60892.56;5919967;23;20009;-93
2023/05/23 07:07:51;;;;;;;1.77;1.50;;;;;;;-145.06;0.00;60892.56;5920150;23;20005;-92
2023/05/23 07:10:33;;;;;;;1.88;1.60;;;;;;;-145.06;0.00;60892.56;5919885;23;20037;-93
2023/05/23 07:13:12;;;;;;;2.30;1.50;;;;;;;-145.06;0.00;60892.56;5919003;23;20263;-92
2023/05/23 07:15:53;;;;;;;1.93;1.23;;;;;;;-145.06;0.00;60892.56;5919389;23;20014;-93
2023/05/23 07:18:33;;;;;;;2.72;1.63;;;;;;;-145.06;0.00;60892.56;5919307;23;20005;-94
2023/05/23 07:21:12;;;;;;;1.65;1.27;;;;;;;-145.06;0.00;60892.56;5919740;23;20002;-93
2023/05/23 07:23:51;;;;;;;1.73;1.53;;;;;;;-145.06;0.00;60892.56;5920036;23;20009;-93
2023/05/23 07:26:32;;;;;;;1.60;1.27;;;;;;;-145.06;0.00;60892.56;5920012;23;20009;-93
2023/05/23 07:29:11;;;;;;;1.90;1.30;;;;;;;-145.06;0.00;60892.56;5920113;23;20013;-93
2023/05/23 07:31:50;;;;;;;1.75;1.20;;;;;;;-145.06;0.00;60892.56;5919320;23;20010;-92
2023/05/23 07:34:30;;;;;;;2.65;1.48;;;;;;;-145.06;0.00;60892.56;5919589;23;20002;-94
2023/05/23 07:37:12;;;;;;;2.42;1.30;;;;;;;-145.06;0.00;60892.56;5919627;23;20010;-93
2023/05/23 07:39:51;;;;;;;2.30;1.67;;;;;;;-145.06;0.00;60892.56;5950930;23;20010;-93
2023/05/23 07:42:32;;;;;;;2.42;1.48;;;;;;;-145.06;0.00;60892.56;5919745;23;20314;-93
2023/05/23 07:45:12;;;;;;;2.30;1.30;;;;;;;-145.06;0.00;60892.56;5920635;23;20013;-93
2023/05/23 07:47:56;;;;;;;3.58;1.83;;;;;;;-145.06;0.00;60892.56;5919691;23;20010;-93
2023/05/23 07:50:39;;;;;;;2.63;2.00;;;;;;;-145.06;0.00;60892.56;5919467;23;20009;-93
2023/05/23 07:53:18;;;;;;;2.83;1.70;;;;;;;-145.06;0.00;60892.56;5919332;23;20006;-94
2023/05/23 07:56:00;;;;;;;2.60;1.80;;;;;;;-145.06;0.00;60892.56;5919501;23;20001;-92
2023/05/23 07:58:39;;;;;;;2.08;1.67;;;;;;;-145.06;0.00;60892.56;5920657;23;20080;-93
2023/05/23 08:01:19;;;;;;;1.73;1.42;;;;;;;-145.06;0.00;60892.56;5921124;23;20005;-93
2023/05/23 08:04:03;;;;;;;2.75;1.70;;;;;;;-145.06;0.00;60892.56;5922466;23;20013;-94
2023/05/23 08:06:46;;;;;;;2.60;1.90;;;;;;;-145.06;0.00;60892.56;5923231;23;20005;-93
2023/05/23 08:09:27;;;;;;;2.92;2.13;;;;;;;15.80;0.00;60892.56;5922981;23;20009;-92
2023/05/23 08:12:08;;;;;;;4.85;2.17;;;;;;;15.88;0.00;60892.56;5923183;23;20425;-93
2023/05/23 08:14:47;;;;;;;2.75;2.10;;;;;;;-145.06;0.00;60892.56;5923845;23;20009;-94
2023/05/23 08:24:36;;;;;;;;;;;;;;;;;;;;;
2023/05/23 08:28:39;;;;;;;;;;;;;;;;;;;;;
2023/05/23 08:34:55;;;;;;;;;;;;;;;;;;;;;
2023/05/23 08:38:48;;;;;;;;;;;;;;;;;;;;;
2023/05/23 08:42:38;;;;;;;2.83;1.83;;;;;;;-145.06;0.00;60892.56;5811842;23;20003;-94
2023/05/23 08:46:02;;;;;;;;;;;;;;;;;;;;;
2023/05/23 08:53:08;;;;;;;;;;;;;;;;;;;;;
2023/05/23 10:20:07;;;;;;;6.32;1.95;;;;;;;15.88;0.00;60892.56;5967369;23;20482;-93
2023/05/23 10:22:47;;;;;;;3.13;2.05;;;;;;;-145.06;0.00;60892.56;5949544;23;20005;-91
2023/05/23 10:25:40;;;;;;;;;;;;;;;;;;;;;
2023/05/23 10:28:31;;;;;;;2.10;1.58;;;;;;;-145.06;0.00;60892.56;5980630;23;20080;-92
2023/05/23 10:31:19;;;;;;;2.63;1.85;;;;;;;-145.06;0.00;60892.56;5948853;23;20013;-93
2023/05/23 10:34:15;;;;;;;4.82;1.85;;;;;;;-145.06;0.00;60892.56;5948340;23;20005;-93
2023/05/23 10:37:05;;;;;;;4.85;2.08;;;;;;;-145.06;0.00;60892.56;5948565;23;20001;-93
2023/05/23 10:40:12;;;;;;;2.53;1.73;;;;;;;-145.06;0.00;60892.56;5947961;23;20080;-92
2023/05/23 10:42:55;;;;;;;3.47;1.65;;;;;;;-145.06;0.00;60892.56;5949135;23;20005;-93
2023/05/23 10:45:50;;;;;;;3.33;1.95;;;;;;;-145.06;0.00;60892.56;5948593;23;20009;-94
2023/05/23 10:48:41;;;;;;;2.92;1.70;;;;;;;-145.06;0.00;60892.56;5948926;23;20005;-93
2023/05/23 10:51:21;;;;;;;2.60;1.80;;;;;;;-145.06;0.00;60892.56;5949580;23;20005;-94
2023/05/23 10:54:03;;;;;;;2.47;1.52;;;;;;;-145.06;0.00;60892.56;5949173;23;20060;-93
2023/05/23 10:56:42;;;;;;;2.85;1.55;;;;;;;16.91;0.00;60892.56;5948795;23;20037;-93
2023/05/23 10:59:28;;;;;;;3.45;1.67;;;;;;;17.03;0.00;60892.56;5948670;23;20318;-93
2023/05/23 11:02:15;;;;;;;1.70;1.17;;;;;;;-145.06;0.00;60892.56;5948529;23;20009;-93
2023/05/23 11:05:23;;;;;;;2.53;1.50;;;;;;;-145.06;0.00;60892.56;5948799;23;20005;-91
2023/05/23 11:08:16;;;;;;;2.70;1.40;;;;;;;-145.06;0.00;60892.56;5948430;23;20001;-93
2023/05/23 11:11:01;;;;;;;2.22;1.33;;;;;;;-145.06;0.00;60892.56;5948255;23;20088;-95
2023/05/23 11:13:59;;;;;;;1.73;1.27;;;;;;;-145.06;0.00;60892.56;5947940;23;20009;-93
2023/05/23 11:16:47;;;;;;;2.20;1.48;;;;;;;-145.06;0.00;60892.56;5947955;23;20004;-92
2023/05/23 11:19:28;;;;;;;2.57;1.60;;;;;;;-145.06;0.00;60892.56;5948335;23;20009;-93
2023/05/23 11:22:08;;;;;;;3.70;1.48;;;;;;;-145.06;0.00;60892.56;5948185;23;20005;-94
2023/05/23 11:24:55;;;;;;;1.80;1.20;;;;;;;18.01;0.00;60892.56;5948802;23;20032;-94
2023/05/23 11:27:40;;;;;;;2.60;1.52;;;;;;;-145.06;0.00;60892.56;5948509;23;20005;-93
2023/05/23 11:30:32;;;;;;;2.63;1.60;;;;;;;-145.06;0.00;60892.56;5948531;23;20106;-92
2023/05/23 11:33:17;;;;;;;2.95;1.75;;;;;;;-145.06;0.00;60892.56;5973135;23;20013;-94
2023/05/23 11:35:59;;;;;;;2.70;1.52;;;;;;;-145.06;0.00;60892.56;5968619;23;20439;-93
2023/05/23 11:38:38;;;;;;;2.92;1.63;;;;;;;-145.06;0.00;60892.56;5951054;23;20033;-93
2023/05/23 11:41:18;;;;;;;2.80;1.73;;;;;;;-145.06;0.00;60892.56;5950863;23;20364;-94
2023/05/23 11:44:00;;;;;;;2.45;1.83;;;;;;;-145.06;0.00;60892.56;5951487;23;20436;-94
2023/05/23 11:47:00;;;;;;;2.45;1.50;;;;;;;-145.06;0.00;60892.56;5950837;23;20009;-93
2023/05/23 11:49:40;;;;;;;3.20;1.58;;;;;;;-145.06;0.00;60892.56;5949580;23;20009;-93
2023/05/23 11:52:37;;;;;;;2.08;1.60;;;;;;;-145.06;0.00;60892.56;5950236;23;20068;-94
2023/05/23 11:55:25;;;;;;;2.75;1.52;;;;;;;-145.06;0.00;60892.56;5949173;23;20009;-93
2023/05/23 11:58:08;;;;;;;1.80;1.10;;;;;;;-145.06;0.00;60892.56;5949917;23;20005;-93
2023/05/23 12:01:16;;;;;;;1.90;1.35;;;;;;;-145.06;0.00;60892.56;5950006;23;20008;-93
2023/05/23 12:03:56;;;;;;;2.40;1.60;;;;;;;-145.06;0.00;60892.56;5950630;23;20009;-93
2023/05/23 12:06:40;;;;;;;1.75;1.27;;;;;;;-145.06;0.00;60892.56;5950312;23;20236;-92
2023/05/23 12:09:22;;;;;;;2.85;1.30;;;;;;;-145.06;0.00;60892.56;5949744;23;20033;-92
2023/05/23 12:12:03;;;;;;;2.47;1.50;;;;;;;-145.06;0.00;60892.56;5949575;23;20009;-93
2023/05/23 12:14:52;;;;;;;1.60;1.17;;;;;;;-145.06;0.00;60892.56;5949850;23;20009;-94
2023/05/23 12:17:45;;;;;;;2.95;1.70;;;;;;;-145.06;0.00;60892.56;5949600;23;20029;-93
2023/05/23 12:20:25;;;;;;;2.85;1.23;;;;;;;-145.06;0.00;60892.56;5949964;23;20432;-94
2023/05/23 12:23:05;;;;;;;1.80;1.33;;;;;;;-145.06;0.00;60892.56;5949869;23;20009;-91
2023/05/23 12:25:51;;;;;;;2.50;1.48;;;;;;;-145.06;0.00;60892.56;5950145;23;20001;-93
2023/05/23 12:28:37;;;;;;;2.67;1.48;;;;;;;17.16;0.00;60892.56;5949514;23;20013;-93
2023/05/23 12:31:26;;;;;;;2.80;1.50;;;;;;;-145.06;0.00;60892.56;5949483;23;20035;-92
2023/05/23 12:34:43;;;;;;;2.83;1.38;;;;;;;-145.06;0.00;60892.56;5950991;23;20076;-94
2023/05/23 12:37:23;;;;;;;2.92;1.58;;;;;;;-145.06;0.00;60892.56;5807792;23;20011;-92
2023/05/23 12:40:27;;;;;;;3.20;1.88;;;;;;;-145.06;0.00;60892.56;5860514;23;19997;-93
2023/05/23 12:43:09;;;;;;;2.30;1.30;;;;;;;-145.06;0.00;60892.56;5949970;23;20001;-92
2023/05/23 12:45:48;;;;;;;2.47;1.50;;;;;;;-145.06;0.00;60892.56;5950234;23;20005;-94
2023/05/23 12:48:27;;;;;;;3.80;1.50;;;;;;;-145.06;0.00;60892.56;5949451;23;20013;-92
2023/05/23 12:51:11;;;;;;;1.92;0.98;;;;;;;-145.06;0.00;60892.56;5949445;23;20001;-92
2023/05/23 12:53:51;;;;;;;1.65;1.00;;;;;;;-145.06;0.00;60892.56;5949198;23;20108;-91
2023/05/23 12:56:38;;;;;;;2.90;1.33;;;;;;;18.48;0.00;60892.56;5950680;23;20562;-92
2023/05/23 12:59:18;;;;;;;2.22;1.20;;;;;;;-145.06;0.00;60892.56;5949058;23;20480;-93
2023/05/23 13:01:59;;;;;;;1.55;1.15;;;;;;;-145.06;0.00;60892.56;5948181;23;20543;-92
2023/05/23 13:04:38;;;;;;;3.15;0.98;;;;;;;-145.06;0.00;60892.56;5948872;23;20009;-93
2023/05/23 13:07:17;;;;;;;1.63;1.00;;;;;;;-145.06;0.00;60892.56;5949573;23;20305;-95
2023/05/23 13:09:56;;;;;;;1.92;1.10;;;;;;;-145.06;0.00;60892.56;5948412;23;20237;-94
2023/05/23 13:12:35;;;;;;;1.35;0.80;;;;;;;-145.06;0.00;60892.56;5948326;23;20009;-93
2023/05/23 13:15:14;;;;;;;1.30;1.00;;;;;;;-145.06;0.00;60892.56;5949243;23;20076;-93
2023/05/23 13:17:54;;;;;;;2.05;0.82;;;;;;;-145.06;0.00;60892.56;5948481;23;20032;-93
2023/05/23 13:20:33;;;;;;;1.48;1.00;;;;;;;-145.06;0.00;60892.56;5949311;23;20009;-91
2023/05/23 13:23:12;;;;;;;1.80;1.10;;;;;;;-145.06;0.00;60892.56;5948380;23;20005;-93
2023/05/23 13:25:52;;;;;;;0.88;0.70;;;;;;;-145.06;0.00;60892.56;5971504;23;20435;-93
2023/05/23 13:28:32;;;;;;;1.60;0.65;;;;;;;-145.06;0.00;60892.56;5949153;23;20005;-93
2023/05/23 13:31:12;;;;;;;1.73;0.70;;;;;;;-145.06;0.00;60892.56;5948985;23;20009;-92
2023/05/23 13:33:50;;;;;;;3.50;1.13;;;;;;;-145.06;0.00;60892.56;5948598;23;20008;-93
2023/05/23 13:36:30;;;;;;;1.83;0.90;;;;;;;-145.06;0.00;60892.56;5948748;23;20005;-92
2023/05/23 13:39:09;;;;;;;1.80;0.70;;;;;;;-145.06;0.00;60892.56;5948223;23;20310;-93
2023/05/23 13:41:49;;;;;;;3.78;1.00;;;;;;;-145.06;0.00;60892.56;5949033;23;20001;-93
2023/05/23 13:44:28;;;;;;;2.20;0.75;;;;;;;-145.06;0.00;60892.56;5949414;23;20009;-92
2023/05/23 13:47:12;;;;;;;2.05;1.00;;;;;;;-145.06;0.00;60892.56;5948765;23;20440;-93
2023/05/23 13:49:51;;;;;;;3.33;0.80;;;;;;;-145.06;0.00;60892.56;5948320;23;20009;-92
2023/05/23 13:52:30;;;;;;;1.08;0.60;;;;;;;-145.06;0.00;60892.56;5948317;23;20356;-92
2023/05/23 13:55:09;;;;;;;2.65;0.93;;;;;;;-145.06;0.00;60892.56;5948078;23;20004;-94
2023/05/23 13:57:48;;;;;;;1.40;0.70;;;;;;;-145.06;0.00;60892.56;5948653;23;20159;-93
2023/05/23 14:00:27;;;;;;;1.92;0.80;;;;;;;-145.06;0.00;60892.56;5948326;23;20009;-94
2023/05/23 14:03:18;;;;;;;1.60;0.90;;;;;;;-145.06;0.00;60892.56;5948995;23;20005;-93
2023/05/23 14:05:57;;;;;;;1.88;0.90;;;;;;;-145.06;0.00;60892.56;5949392;23;20013;-93
2023/05/23 14:08:36;;;;;;;0.88;0.60;;;;;;;18.73;0.00;60892.56;5971290;23;20005;-94
2023/05/23 14:11:55;;;;;;;2.10;0.60;;;;;;;-145.06;0.00;60892.56;5949335;23;20428;-92
2023/05/23 14:30:50;;;;;;;;;;;;;;;;;;;;;
2023/05/23 14:35:00;;;;;;;2.38;0.75;;;;;;;-145.06;0.00;60892.56;5717262;23;20017;-94
2023/05/23 15:11:26;;;;;;;;;;;;;;;;;;;;;
2023/05/23 15:14:36;;;;;;;1.13;0.60;;;;;;;-145.06;0.00;60892.56;5980957;23;20032;-95
2023/05/23 15:23:26;;;;;;;2.35;0.85;;;;;;;-145.06;0.00;60892.56;5960340;23;20012;-95
2023/05/23 15:26:22;;;;;;;1.35;0.63;;;;;;;-145.06;0.00;60892.56;5950457;23;20001;-94
2023/05/23 15:29:40;;;;;;;2.88;0.70;;;;;;;-145.06;0.00;60892.56;5949698;23;20009;-94
2023/05/23 15:32:22;;;;;;;2.55;0.80;;;;;;;-145.06;0.00;60892.56;5948352;23;20262;-94
2023/05/23 15:35:08;;;;;;;3.65;1.08;;;;;;;-145.06;0.00;60892.56;5958106;23;20108;-92
2023/05/23 15:38:09;;;;;;;2.25;0.80;;;;;;;-145.06;0.00;60892.56;5948088;23;20060;-94
2023/05/23 15:40:55;;;;;;;1.55;0.70;;;;;;;-145.06;0.00;60892.56;5967788;23;20025;-93
2023/05/23 15:44:18;;;;;;;2.08;0.60;;;;;;;-145.06;0.00;60892.56;5950352;23;20305;-92
2023/05/23 15:51:55;;;;;;;;;;;;;;;;;;;;;
2023/05/23 15:54:36;;;;;;;;;;;;;;;;;;;;;
2023/05/23 15:57:18;;;;;;;;;;;;;;;-145.06;0.00;60892.56;5953326;23;20326;-92
2023/05/23 15:59:57;;;;;;;1.27;0.47;;;;;;;-145.06;0.00;60892.56;5920492;23;19905;-92
2023/05/23 16:49:02;;;;;;;;;;;;;;;;;;;;;
2023/05/23 17:04:17;;;;;;;1.57;0.67;;;;;;;-145.06;0.00;60892.56;5708130;24;20045;-93
